createdAt,value
2022-12-15T00:13:48.947Z,13
2022-12-15T00:42:45.592Z,14
2022-12-15T01:11:19.128Z,13
2022-12-15T01:40:17.361Z,13
2022-12-15T02:09:16.412Z,13
2022-12-15T02:38:11.878Z,13
2022-12-15T03:07:12.687Z,13
2022-12-15T03:36:12.024Z,12
2022-12-15T04:05:12.153Z,12
2022-12-15T04:34:11.153Z,12
2022-12-15T05:03:10.380Z,12
2022-12-15T05:31:39.966Z,11
2022-12-15T06:00:28.315Z,12
2022-12-15T06:29:15.098Z,12
2022-12-15T06:57:52.471Z,12
2022-12-15T07:26:30.368Z,12
2022-12-15T07:55:04.361Z,14
2022-12-15T08:23:34.713Z,15
2022-12-15T08:52:10.553Z,14
2022-12-15T09:20:50.893Z,15
2022-12-15T09:49:19.875Z,14
2022-12-15T10:17:58.650Z,15
2022-12-15T10:46:35.654Z,15
2022-12-15T11:15:05.023Z,14
2022-12-15T11:43:39.569Z,15
2022-12-15T12:12:13.040Z,15
2022-12-15T12:41:00.414Z,25
2022-12-15T13:09:39.503Z,25
2022-12-15T13:38:23.108Z,28
2022-12-15T14:07:12.196Z,29
2022-12-15T14:36:04.358Z,28
2022-12-15T15:04:49.652Z,28
2022-12-15T15:33:27.850Z,26
2022-12-15T16:02:08.902Z,26
2022-12-15T16:30:38.057Z,25
2022-12-15T16:59:32.884Z,25
2022-12-15T17:27:49.927Z,22
2022-12-15T17:56:37.579Z,22
2022-12-15T18:25:27.336Z,22
2022-12-15T18:54:07.873Z,22
2022-12-15T19:22:54.379Z,21
2022-12-15T19:51:45.645Z,22
2022-12-15T20:20:43.778Z,21
2022-12-15T20:49:38.337Z,23
2022-12-15T21:19:11.290Z,22
2022-12-15T21:47:04.119Z,21
2022-12-15T22:16:03.678Z,21
2022-12-15T22:44:50.854Z,21
2022-12-15T23:13:23.151Z,21
2022-12-15T23:42:18.206Z,20
